createdAt,value
2022-08-07T00:00:53.348Z,100.00
2022-08-07T00:03:25.691Z,100.00
2022-08-07T00:05:54.292Z,100.00
2022-08-07T00:08:23.806Z,100.00
2022-08-07T00:10:57.550Z,100.00
2022-08-07T00:13:27.284Z,100.00
2022-08-07T00:15:55.582Z,100.00
2022-08-07T00:18:25.216Z,100.00
2022-08-07T00:20:57.557Z,100.00
2022-08-07T00:23:30.153Z,100.00
2022-08-07T00:26:06.952Z,100.00
2022-08-07T00:28:41.803Z,100.00
2022-08-07T00:31:16.545Z,100.00
2022-08-07T00:33:47.576Z,100.00
2022-08-07T00:36:16.863Z,100.00
2022-08-07T00:38:45.799Z,100.00
2022-08-07T00:41:15.264Z,100.00
2022-08-07T00:44:00.598Z,100.00
2022-08-07T00:46:33.031Z,100.00
2022-08-07T00:49:03.557Z,100.00
2022-08-07T00:51:57.164Z,100.00
2022-08-07T00:54:20.465Z,100.00
2022-08-07T00:56:53.215Z,100.00
2022-08-07T00:59:35.932Z,100.00
2022-08-07T01:02:05.791Z,100.00
2022-08-07T01:04:43.273Z,100.00
2022-08-07T01:07:12.679Z,100.00
2022-08-07T01:10:06.538Z,100.00
2022-08-07T01:12:31.080Z,100.00
2022-08-07T01:15:01.630Z,100.00
2022-08-07T01:17:33.217Z,100.00
2022-08-07T01:20:05.230Z,100.00
2022-08-07T01:22:36.385Z,100.00
2022-08-07T01:25:40.403Z,100.00
2022-08-07T01:27:54.626Z,100.00
2022-08-07T01:31:24.051Z,100.00
2022-08-07T01:33:56.355Z,100.00
2022-08-07T01:36:33.981Z,100.00
2022-08-07T01:39:10.240Z,100.00
2022-08-07T01:41:39.125Z,100.00
2022-08-07T01:44:22.794Z,100.00
2022-08-07T01:46:51.432Z,100.00
2022-08-07T01:49:21.508Z,100.00
2022-08-07T01:52:03.110Z,100.00
2022-08-07T01:54:37.810Z,100.00
2022-08-07T01:57:08.509Z,100.00
2022-08-07T01:59:43.827Z,100.00
2022-08-07T02:03:05.631Z,100.00
2022-08-07T02:05:07.729Z,100.00
2022-08-07T02:07:51.173Z,100.00
2022-08-07T02:10:24.770Z,100.00
2022-08-07T02:12:53.731Z,100.00
2022-08-07T02:15:23.910Z,100.00
2022-08-07T02:17:55.058Z,100.00
2022-08-07T02:20:24.831Z,100.00
2022-08-07T02:22:55.035Z,100.00
2022-08-07T02:26:10.020Z,100.00
2022-08-07T02:28:24.695Z,100.00
2022-08-07T02:30:55.416Z,100.00
2022-08-07T02:33:24.994Z,100.00
2022-08-07T02:36:28.752Z,100.00
2022-08-07T02:39:00.130Z,100.00
2022-08-07T02:41:33.571Z,100.00
2022-08-07T02:44:07.200Z,100.00
2022-08-07T02:46:37.024Z,100.00
2022-08-07T02:49:28.652Z,100.00
2022-08-07T02:51:59.263Z,100.00
2022-08-07T02:54:28.936Z,100.00
2022-08-07T02:57:01.963Z,100.00
2022-08-07T02:59:31.092Z,100.00
2022-08-07T03:02:02.250Z,100.00
2022-08-07T03:04:31.007Z,100.00
2022-08-07T03:07:03.262Z,100.00
2022-08-07T03:09:43.896Z,100.00
2022-08-07T03:12:22.509Z,100.00
2022-08-07T03:14:58.635Z,100.00
2022-08-07T03:17:31.031Z,100.00
2022-08-07T03:20:05.088Z,100.00
2022-08-07T03:22:34.660Z,100.00
2022-08-07T03:25:02.974Z,100.00
2022-08-07T03:27:59.046Z,100.00
2022-08-07T03:30:20.650Z,100.00
2022-08-07T03:32:58.788Z,100.00
2022-08-07T03:35:43.610Z,100.00
2022-08-07T03:38:21.346Z,100.00
2022-08-07T03:40:57.969Z,100.00
2022-08-07T03:43:32.410Z,100.00
2022-08-07T03:46:02.867Z,100.00
2022-08-07T03:48:33.602Z,100.00
2022-08-07T03:51:14.616Z,100.00
2022-08-07T03:54:05.597Z,100.00
2022-08-07T03:56:34.289Z,100.00
2022-08-07T03:59:10.082Z,100.00
2022-08-07T04:01:45.576Z,100.00
2022-08-07T04:04:17.162Z,100.00
2022-08-07T04:06:45.948Z,100.00
2022-08-07T04:09:19.392Z,100.00
2022-08-07T04:12:24.441Z,100.00
2022-08-07T04:14:46.096Z,100.00
2022-08-07T04:17:20.603Z,100.00
2022-08-07T04:19:54.194Z,100.00
2022-08-07T04:22:23.630Z,100.00
2022-08-07T04:24:58.167Z,100.00
2022-08-07T04:27:26.725Z,100.00
2022-08-07T04:30:01.990Z,100.00
2022-08-07T04:32:34.661Z,100.00
2022-08-07T04:35:03.901Z,100.00
2022-08-07T04:37:40.481Z,100.00
2022-08-07T04:40:22.979Z,100.00
2022-08-07T04:43:01.999Z,100.00
2022-08-07T04:45:57.628Z,100.00
2022-08-07T04:48:33.663Z,100.00
2022-08-07T04:51:05.843Z,100.00
2022-08-07T04:54:05.239Z,100.00
2022-08-07T04:58:12.230Z,100.00
2022-08-07T05:00:11.803Z,100.00
2022-08-07T05:02:25.842Z,100.00
2022-08-07T05:04:59.523Z,100.00
2022-08-07T05:07:36.902Z,100.00
2022-08-07T05:10:21.204Z,100.00
2022-08-07T05:12:53.781Z,100.00
2022-08-07T05:15:26.185Z,100.00
2022-08-07T05:18:00.786Z,100.00
2022-08-07T05:20:34.854Z,100.00
2022-08-07T05:23:06.833Z,100.00
2022-08-07T05:26:13.286Z,100.00
2022-08-07T05:28:33.461Z,100.00
2022-08-07T05:31:03.687Z,100.00
2022-08-07T05:33:36.897Z,100.00
2022-08-07T05:36:06.848Z,100.00
2022-08-07T05:39:00.419Z,100.00
2022-08-07T05:42:01.113Z,100.00
2022-08-07T05:44:18.978Z,100.00
2022-08-07T05:46:57.841Z,100.00
2022-08-07T05:49:40.514Z,100.00
2022-08-07T05:52:11.490Z,100.00
2022-08-07T05:54:53.285Z,100.00
2022-08-07T05:57:26.797Z,100.00
2022-08-07T05:59:59.459Z,100.00
2022-08-07T06:02:29.603Z,100.00
2022-08-07T06:05:04.436Z,100.00
2022-08-07T06:08:09.316Z,100.00
2022-08-07T06:10:22.925Z,100.00
2022-08-07T06:12:51.126Z,100.00
2022-08-07T06:15:20.861Z,100.00
2022-08-07T06:17:53.552Z,100.00
2022-08-07T06:20:49.404Z,100.00
2022-08-07T06:23:46.465Z,100.00
2022-08-07T06:26:02.112Z,100.00
2022-08-07T06:28:30.920Z,100.00
2022-08-07T06:31:00.213Z,100.00
2022-08-07T06:33:29.716Z,100.00
2022-08-07T06:36:06.505Z,100.00
2022-08-07T06:38:59.390Z,98.92
2022-08-07T06:41:47.725Z,99.08
2022-08-07T06:44:21.462Z,98.30
2022-08-07T06:47:10.652Z,95.44
2022-08-07T06:49:51.470Z,95.71
2022-08-07T06:52:35.490Z,93.83
2022-08-07T06:55:32.412Z,91.93
2022-08-07T06:57:59.159Z,94.94
2022-08-07T07:00:30.461Z,93.15
2022-08-07T07:03:01.107Z,93.84
2022-08-07T07:06:02.385Z,91.32
2022-08-07T07:08:46.719Z,92.65
2022-08-07T07:12:06.749Z,88.33
2022-08-07T07:14:03.808Z,86.43
2022-08-07T07:16:45.033Z,86.55
2022-08-07T07:19:55.976Z,89.25
2022-08-07T07:22:35.913Z,85.34
2022-08-07T07:25:13.918Z,85.55
2022-08-07T07:27:56.240Z,83.52
2022-08-07T07:30:39.627Z,83.77
2022-08-07T07:33:11.629Z,84.26
2022-08-07T07:35:50.648Z,81.23
2022-08-07T07:38:29.932Z,78.89
2022-08-07T07:41:03.579Z,79.19
2022-08-07T07:43:47.899Z,79.08
2022-08-07T07:46:37.732Z,78.39
2022-08-07T07:50:36.038Z,76.42
2022-08-07T07:52:02.680Z,77.13
2022-08-07T07:54:32.016Z,75.16
2022-08-07T07:57:02.980Z,74.45
2022-08-07T07:59:52.926Z,74.04
2022-08-07T08:02:34.260Z,72.81
2022-08-07T08:05:05.421Z,71.98
2022-08-07T08:08:00.051Z,72.99
2022-08-07T08:10:35.742Z,71.52
2022-08-07T08:13:10.544Z,68.55
2022-08-07T08:15:59.043Z,69.91
2022-08-07T08:18:29.451Z,67.45
2022-08-07T08:21:00.979Z,68.15
2022-08-07T08:23:47.734Z,68.50
2022-08-07T08:26:34.912Z,66.58
2022-08-07T08:29:05.670Z,68.22
2022-08-07T08:31:59.164Z,66.93
2022-08-07T08:34:26.792Z,66.24
2022-08-07T08:36:58.011Z,64.33
2022-08-07T08:39:39.314Z,63.66
2022-08-07T08:42:21.218Z,63.38
2022-08-07T08:45:13.333Z,61.64
2022-08-07T08:47:55.373Z,59.62
2022-08-07T08:50:34.777Z,59.75
2022-08-07T08:53:13.698Z,58.64
2022-08-07T08:55:54.304Z,60.01
2022-08-07T08:58:37.187Z,58.31
2022-08-07T09:01:18.635Z,55.54
2022-08-07T09:03:55.343Z,58.24
2022-08-07T09:06:34.432Z,56.16
2022-08-07T09:09:13.371Z,58.42
2022-08-07T09:12:02.791Z,58.08
2022-08-07T09:14:50.751Z,58.89
2022-08-07T09:17:34.021Z,54.16
2022-08-07T09:20:34.684Z,54.90
2022-08-07T09:24:31.970Z,58.60
2022-08-07T09:26:03.315Z,56.93
2022-08-07T09:30:05.813Z,54.61
2022-08-07T09:31:38.949Z,52.80
2022-08-07T09:34:21.874Z,53.76
2022-08-07T09:37:02.183Z,54.47
2022-08-07T09:39:53.953Z,53.60
2022-08-07T09:42:35.716Z,53.57
2022-08-07T09:47:52.543Z,54.61
2022-08-07T09:48:15.230Z,54.99
2022-08-07T09:51:01.282Z,54.48
2022-08-07T09:53:40.621Z,54.87
2022-08-07T09:56:34.070Z,54.12
2022-08-07T09:59:14.582Z,55.46
2022-08-07T10:01:59.469Z,57.49
2022-08-07T10:04:53.052Z,59.62
2022-08-07T10:07:52.917Z,54.56
2022-08-07T10:10:30.211Z,53.48
2022-08-07T10:13:29.648Z,55.43
2022-08-07T10:16:10.904Z,54.75
2022-08-07T10:18:50.113Z,54.00
2022-08-07T10:21:50.689Z,54.59
2022-08-07T10:24:46.090Z,52.80
2022-08-07T10:27:46.728Z,53.22
2022-08-07T10:30:17.738Z,52.12
2022-08-07T10:33:14.837Z,52.21
2022-08-07T10:36:05.605Z,52.07
2022-08-07T10:38:49.923Z,54.56
2022-08-07T10:41:47.487Z,51.59
2022-08-07T10:44:28.677Z,51.25
2022-08-07T10:47:18.696Z,50.64
2022-08-07T10:49:59.404Z,49.71
2022-08-07T10:52:35.144Z,50.42
2022-08-07T10:55:26.961Z,49.05
2022-08-07T10:58:06.766Z,48.80
2022-08-07T11:00:50.521Z,50.59
2022-08-07T11:03:37.912Z,48.10
2022-08-07T11:06:22.906Z,47.81
2022-08-07T11:09:01.381Z,48.88
2022-08-07T11:11:36.023Z,47.92
2022-08-07T11:14:43.774Z,46.92
2022-08-07T11:17:07.406Z,47.38
2022-08-07T11:19:41.206Z,48.19
2022-08-07T11:22:26.657Z,46.67
2022-08-07T11:25:06.572Z,46.47
2022-08-07T11:28:02.915Z,45.90
2022-08-07T11:30:41.741Z,46.45
2022-08-07T11:33:17.163Z,45.37
2022-08-07T11:35:59.591Z,46.02
2022-08-07T11:38:32.905Z,45.59
2022-08-07T11:41:05.054Z,44.99
2022-08-07T11:43:54.439Z,44.84
2022-08-07T11:46:44.115Z,45.20
2022-08-07T11:50:25.259Z,44.38
2022-08-07T11:52:41.090Z,44.88
2022-08-07T11:55:19.085Z,45.27
2022-08-07T11:58:16.124Z,44.74
2022-08-07T12:01:01.843Z,47.14
2022-08-07T12:03:46.104Z,46.10
2022-08-07T12:06:36.898Z,45.48
2022-08-07T12:09:16.006Z,46.49
2022-08-07T12:12:09.959Z,49.15
2022-08-07T12:14:43.765Z,46.69
2022-08-07T12:17:20.433Z,45.11
2022-08-07T12:20:03.940Z,48.59
2022-08-07T12:22:56.560Z,47.88
2022-08-07T12:26:05.989Z,47.78
2022-08-07T12:28:44.984Z,46.83
2022-08-07T12:31:52.559Z,45.04
2022-08-07T12:34:17.726Z,44.45
2022-08-07T12:36:50.281Z,44.04
2022-08-07T12:39:44.160Z,44.79
2022-08-07T12:42:10.258Z,47.91
2022-08-07T12:44:44.899Z,43.55
2022-08-07T12:47:26.994Z,41.29
2022-08-07T12:50:04.634Z,41.14
2022-08-07T12:52:46.246Z,42.54
2022-08-07T12:55:19.043Z,42.98
2022-08-07T12:58:00.842Z,40.33
2022-08-07T13:00:41.759Z,41.17
2022-08-07T13:03:59.055Z,41.51
2022-08-07T13:06:36.220Z,39.56
2022-08-07T13:10:37.054Z,38.24
2022-08-07T13:12:28.083Z,37.96
2022-08-07T13:15:02.662Z,35.93
2022-08-07T13:17:41.172Z,35.31
2022-08-07T13:20:13.896Z,34.29
2022-08-07T13:22:53.551Z,35.66
2022-08-07T13:25:29.635Z,40.02
2022-08-07T13:28:13.702Z,38.95
2022-08-07T13:30:53.211Z,40.30
2022-08-07T13:34:31.725Z,42.42
2022-08-07T13:36:27.302Z,41.63
2022-08-07T13:39:02.816Z,40.44
2022-08-07T13:41:41.715Z,39.64
2022-08-07T13:44:12.972Z,43.05
2022-08-07T13:46:49.210Z,41.52
2022-08-07T13:50:35.199Z,45.28
2022-08-07T13:52:30.749Z,48.89
2022-08-07T13:54:56.646Z,46.99
2022-08-07T13:57:38.159Z,42.10
2022-08-07T14:00:26.101Z,41.21
2022-08-07T14:02:57.178Z,40.34
2022-08-07T14:05:29.021Z,38.27
2022-08-07T14:08:08.010Z,36.78
2022-08-07T14:10:42.425Z,35.07
2022-08-07T14:13:16.569Z,34.36
2022-08-07T14:15:51.534Z,35.03
2022-08-07T14:18:29.970Z,35.29
2022-08-07T14:21:07.861Z,35.83
2022-08-07T14:24:00.317Z,35.24
2022-08-07T14:26:32.339Z,36.27
2022-08-07T14:29:10.399Z,32.84
2022-08-07T14:31:56.416Z,33.70
2022-08-07T14:34:29.736Z,32.94
2022-08-07T14:37:01.802Z,31.64
2022-08-07T14:40:16.210Z,33.88
2022-08-07T14:42:24.838Z,32.90
2022-08-07T14:44:59.872Z,34.53
2022-08-07T14:47:32.363Z,32.93
2022-08-07T14:50:06.404Z,29.48
2022-08-07T14:52:39.787Z,30.30
2022-08-07T14:55:09.461Z,30.03
2022-08-07T14:57:55.221Z,31.44
2022-08-07T15:03:19.760Z,31.74
2022-08-07T15:06:06.792Z,28.86
2022-08-07T15:08:50.094Z,32.00
2022-08-07T15:11:53.061Z,32.97
2022-08-07T15:14:16.311Z,33.04
2022-08-07T15:16:55.259Z,34.79
2022-08-07T15:20:31.352Z,36.16
2022-08-07T15:22:29.237Z,39.35
2022-08-07T15:25:17.866Z,41.97
2022-08-07T15:28:30.887Z,42.04
2022-08-07T15:36:15.194Z,49.20
2022-08-07T15:39:04.329Z,45.45
2022-08-07T15:42:44.581Z,50.27
2022-08-07T15:44:30.389Z,49.58
2022-08-07T15:47:03.461Z,47.08
2022-08-07T15:52:30.275Z,46.82
2022-08-07T15:55:02.851Z,46.46
2022-08-07T15:57:41.129Z,40.89
2022-08-07T16:00:31.355Z,34.77
2022-08-07T16:03:03.614Z,32.86
2022-08-07T16:05:33.453Z,35.64
2022-08-07T16:08:32.211Z,34.48
2022-08-07T16:10:56.248Z,33.39
2022-08-07T16:13:59.101Z,35.34
2022-08-07T16:16:47.869Z,40.54
2022-08-07T16:19:41.892Z,41.46
2022-08-07T16:22:37.867Z,43.08
2022-08-07T16:25:23.128Z,42.39
2022-08-07T16:28:00.770Z,43.83
2022-08-07T16:30:32.610Z,42.40
2022-08-07T16:34:02.600Z,46.30
2022-08-07T16:36:08.423Z,44.17
2022-08-07T16:39:02.200Z,45.51
2022-08-07T16:42:02.866Z,45.79
2022-08-07T16:45:14.939Z,45.20
2022-08-07T16:47:58.975Z,46.90
2022-08-07T16:50:52.572Z,43.63
2022-08-07T16:54:06.232Z,41.17
2022-08-07T16:56:53.602Z,39.37
2022-08-07T16:59:46.845Z,38.77
2022-08-07T17:02:53.449Z,39.26
2022-08-07T17:06:22.449Z,38.42
2022-08-07T17:09:04.334Z,36.51
2022-08-07T17:12:04.936Z,35.36
2022-08-07T17:14:22.420Z,37.58
2022-08-07T17:16:55.940Z,35.54
2022-08-07T17:20:00.638Z,38.46
2022-08-07T17:22:29.930Z,36.01
2022-08-07T17:25:10.074Z,37.96
2022-08-07T17:27:51.091Z,39.75
2022-08-07T17:30:26.890Z,41.63
2022-08-07T17:34:09.855Z,39.79
2022-08-07T17:35:59.891Z,39.79
2022-08-07T17:38:35.357Z,39.72
2022-08-07T17:42:02.859Z,40.87
2022-08-07T17:44:02.742Z,41.34
2022-08-07T17:46:40.167Z,43.13
2022-08-07T17:49:13.999Z,42.21
2022-08-07T17:52:00.288Z,45.19
2022-08-07T17:54:53.336Z,49.80
2022-08-07T17:57:24.050Z,48.83
2022-08-07T17:59:58.171Z,46.84
2022-08-07T18:02:31.431Z,46.83
2022-08-07T18:05:14.205Z,48.35
2022-08-07T18:07:57.039Z,46.05
2022-08-07T18:10:33.829Z,46.21
2022-08-07T18:13:23.111Z,51.24
2022-08-07T18:16:05.013Z,48.12
2022-08-07T18:21:00.779Z,47.97
2022-08-07T18:21:57.911Z,47.76
2022-08-07T18:24:33.450Z,47.75
2022-08-07T18:27:18.087Z,49.61
2022-08-07T18:30:06.736Z,48.83
2022-08-07T18:33:28.685Z,51.31
2022-08-07T18:36:06.046Z,52.35
2022-08-07T18:38:58.810Z,54.07
2022-08-07T18:41:45.228Z,54.78
2022-08-07T18:44:26.803Z,57.47
2022-08-07T18:47:01.796Z,54.21
2022-08-07T18:50:31.424Z,60.56
2022-08-07T18:52:53.542Z,57.89
2022-08-07T18:55:41.573Z,61.65
2022-08-07T18:58:51.449Z,61.99
2022-08-07T19:02:32.582Z,60.51
2022-08-07T19:04:38.533Z,60.83
2022-08-07T19:07:36.628Z,61.62
2022-08-07T19:10:31.499Z,59.13
2022-08-07T19:13:10.106Z,58.63
2022-08-07T19:16:04.241Z,59.73
2022-08-07T19:18:44.536Z,60.69
2022-08-07T19:21:47.854Z,59.73
2022-08-07T19:24:11.280Z,61.22
2022-08-07T19:28:30.536Z,62.26
2022-08-07T19:31:05.414Z,66.28
2022-08-07T19:32:45.300Z,66.76
2022-08-07T19:35:17.730Z,68.88
2022-08-07T19:37:56.237Z,69.61
2022-08-07T19:40:33.411Z,65.68
2022-08-07T19:43:02.924Z,66.88
2022-08-07T19:46:07.536Z,63.70
2022-08-07T19:48:24.830Z,63.29
2022-08-07T19:50:54.377Z,66.28
2022-08-07T19:54:30.987Z,71.76
2022-08-07T19:57:51.305Z,74.30
2022-08-07T19:59:03.909Z,74.45
2022-08-07T20:01:52.694Z,74.55
2022-08-07T20:04:37.229Z,74.39
2022-08-07T20:07:09.357Z,73.50
2022-08-07T20:10:36.396Z,83.00
2022-08-07T20:12:35.731Z,73.89
2022-08-07T20:15:05.230Z,80.32
2022-08-07T20:17:46.374Z,79.73
2022-08-07T20:20:29.969Z,82.19
2022-08-07T20:23:10.925Z,85.46
2022-08-07T20:25:53.206Z,81.09
2022-08-07T20:28:29.405Z,78.31
2022-08-07T20:31:01.699Z,77.35
2022-08-07T20:33:37.511Z,81.19
2022-08-07T20:36:08.330Z,79.90
2022-08-07T20:38:59.742Z,79.90
2022-08-07T20:41:33.846Z,79.21
2022-08-07T20:44:04.088Z,74.82
2022-08-07T20:46:42.879Z,74.03
2022-08-07T20:49:59.007Z,75.10
2022-08-07T20:52:01.893Z,78.58
2022-08-07T20:54:35.235Z,70.94
2022-08-07T20:57:08.400Z,73.71
2022-08-07T21:00:07.625Z,71.18
2022-08-07T21:02:53.274Z,68.47
2022-08-07T21:05:42.944Z,70.41
2022-08-07T21:08:14.699Z,71.36
2022-08-07T21:10:45.285Z,66.46
2022-08-07T21:13:16.782Z,67.41
2022-08-07T21:16:00.403Z,67.69
2022-08-07T21:18:33.918Z,68.93
2022-08-07T21:21:02.356Z,68.09
2022-08-07T21:23:50.315Z,66.91
2022-08-07T21:26:30.665Z,67.45
2022-08-07T21:29:01.852Z,67.37
2022-08-07T21:32:42.425Z,68.38
2022-08-07T21:34:34.031Z,68.45
2022-08-07T21:37:05.461Z,67.58
2022-08-07T21:39:45.251Z,68.08
2022-08-07T21:42:42.327Z,68.67
2022-08-07T21:46:07.725Z,68.97
2022-08-07T21:48:29.012Z,68.86
2022-08-07T21:51:08.223Z,69.55
2022-08-07T21:53:52.842Z,69.39
2022-08-07T21:56:36.116Z,69.21
2022-08-07T21:59:10.518Z,69.03
2022-08-07T22:02:10.685Z,69.39
2022-08-07T22:04:53.506Z,69.31
2022-08-07T22:07:31.593Z,70.97
2022-08-07T22:10:17.897Z,70.72
2022-08-07T22:12:50.016Z,70.93
2022-08-07T22:16:43.305Z,73.09
2022-08-07T22:18:12.858Z,71.75
2022-08-07T22:20:51.332Z,72.65
2022-08-07T22:23:24.001Z,71.60
2022-08-07T22:26:04.925Z,73.65
2022-08-07T22:28:40.410Z,73.80
2022-08-07T22:31:58.993Z,73.05
2022-08-07T22:34:12.936Z,73.51
2022-08-07T22:36:46.458Z,74.48
2022-08-07T22:39:52.582Z,74.61
2022-08-07T22:42:26.085Z,74.63
2022-08-07T22:45:02.348Z,73.63
2022-08-07T22:47:56.706Z,74.03
2022-08-07T22:50:47.908Z,72.93
2022-08-07T22:54:07.050Z,73.32
2022-08-07T22:56:48.440Z,75.71
2022-08-07T22:59:41.366Z,75.90
2022-08-07T23:02:27.617Z,74.84
2022-08-07T23:06:09.870Z,74.66
2022-08-07T23:08:38.127Z,76.20
2022-08-07T23:11:27.459Z,75.89
2022-08-07T23:14:16.595Z,77.09
2022-08-07T23:16:55.926Z,75.72
2022-08-07T23:20:07.187Z,77.53
2022-08-07T23:22:45.325Z,76.83
2022-08-07T23:25:22.356Z,77.69
2022-08-07T23:28:29.431Z,77.60
2022-08-07T23:31:42.633Z,76.96
2022-08-07T23:34:37.695Z,76.92
2022-08-07T23:37:34.042Z,78.79
2022-08-07T23:40:13.813Z,79.08
2022-08-07T23:42:55.653Z,79.00
2022-08-07T23:46:01.875Z,80.75
2022-08-07T23:48:35.163Z,81.69
2022-08-07T23:52:57.135Z,80.89
2022-08-07T23:54:01.063Z,82.50
2022-08-07T23:56:35.124Z,82.78
